47.2°F
Current conditions from King Hill
Updated every 5 minutes
 
  Saturday April 19, 2014

Station Historical Data
Daily Summary for March 22, 2012 Units:  Both    English   Metric
« Previous Day
Next Day »
Daily Weekly Monthly Yearly Custom
  High: Low: Average:
Temperature: 78.7 °F /  25.9 °C 55.0 °F /  12.8 °C 65.2 °F /  18.4 °C
Dew Point: 55.9 °F /  13.3 °C 45.9 °F /  7.7 °C 52.5 °F /  11.4 °C
Humidity: 85% 43% 65%
Wind Speed: 9.0mph /  14.5km/h - 4.5mph /  7.2km/h
Wind Gust: 19.0mph /  30.6km/h - -
Wind- - SW
Pressure: 30.13 in /  1020.2 hPa 30.00 in /  1015.8 hPa -
Precipitation: 0.00 in /  0 mm    
Historical Graphs
 
 
Tabular Data for March 22, 2012
Time Temperature Dew Point Pressure Wind Wind Speed Wind Gust Humidity Daily Rainfall
00:04 63.0 °F /  17.2 °C 46.1 °F /  7.8 °C 30.13in /  1020.2hPa SSW 2.0mph /  3.2km/h 7.0mph /  11.3km/h 54% 0.00in /  0mm
00:09 62.8 °F /  17.1 °C 45.9 °F /  7.7 °C 30.13in /  1020.2hPa SSW 4.0mph /  6.4km/h 7.0mph /  11.3km/h 54% 0.00in /  0mm
00:15 62.5 °F /  16.9 °C 46.1 °F /  7.8 °C 30.13in /  1020.2hPa SSW 3.0mph /  4.8km/h 7.0mph /  11.3km/h 55% 0.00in /  0mm
00:19 62.4 °F /  16.9 °C 46.0 °F /  7.8 °C 30.13in /  1020.2hPa SSW 4.0mph /  6.4km/h 7.0mph /  11.3km/h 55% 0.00in /  0mm
00:25 62.3 °F /  16.8 °C 46.4 °F /  8 °C 30.13in /  1020.2hPa SSW 4.0mph /  6.4km/h 10.0mph /  16.1km/h 56% 0.00in /  0mm
00:30 62.4 °F /  16.9 °C 46.5 °F /  8.1 °C 30.13in /  1020.2hPa SSW 4.0mph /  6.4km/h 10.0mph /  16.1km/h 56% 0.00in /  0mm
00:35 62.3 °F /  16.8 °C 46.4 °F /  8 °C 30.12in /  1019.9hPa SSW 5.0mph /  8km/h 8.0mph /  12.9km/h 56% 0.00in /  0mm
00:39 62.3 °F /  16.8 °C 46.9 °F /  8.3 °C 30.12in /  1019.9hPa SSW 5.0mph /  8km/h 9.0mph /  14.5km/h 57% 0.00in /  0mm
00:45 62.3 °F /  16.8 °C 47.3 °F /  8.5 °C 30.12in /  1019.9hPa SSW 5.0mph /  8km/h 9.0mph /  14.5km/h 58% 0.00in /  0mm
00:50 62.3 °F /  16.8 °C 47.8 °F /  8.8 °C 30.12in /  1019.9hPa SSW 4.0mph /  6.4km/h 9.0mph /  14.5km/h 59% 0.00in /  0mm
00:54 62.2 °F /  16.8 °C 48.2 °F /  9 °C 30.12in /  1019.9hPa SSW 5.0mph /  8km/h 10.0mph /  16.1km/h 60% 0.00in /  0mm
00:59 62.0 °F /  16.7 °C 48.4 °F /  9.1 °C 30.12in /  1019.9hPa SSW 4.0mph /  6.4km/h 10.0mph /  16.1km/h 61% 0.00in /  0mm
01:04 61.8 °F /  16.6 °C 48.7 °F /  9.3 °C 30.12in /  1019.9hPa SSW 4.0mph /  6.4km/h 10.0mph /  16.1km/h 62% 0.00in /  0mm
01:09 61.6 °F /  16.4 °C 48.9 °F /  9.4 °C 30.12in /  1019.9hPa SSW 5.0mph /  8km/h 9.0mph /  14.5km/h 63% 0.00in /  0mm
01:14 61.3 °F /  16.3 °C 48.6 °F /  9.2 °C 30.12in /  1019.9hPa SSW 3.0mph /  4.8km/h 8.0mph /  12.9km/h 63% 0.00in /  0mm
01:19 60.9 °F /  16.1 °C 48.7 °F /  9.3 °C 30.12in /  1019.9hPa SSW 4.0mph /  6.4km/h 8.0mph /  12.9km/h 64% 0.00in /  0mm
01:24 60.9 °F /  16.1 °C 49.1 °F /  9.5 °C 30.12in /  1019.9hPa SSW 4.0mph /  6.4km/h 8.0mph /  12.9km/h 65% 0.00in /  0mm
01:30 60.7 °F /  15.9 °C 49.3 °F /  9.6 °C 30.12in /  1019.9hPa SSW 5.0mph /  8km/h 9.0mph /  14.5km/h 66% 0.00in /  0mm
01:35 60.5 °F /  15.8 °C 49.5 °F /  9.7 °C 30.12in /  1019.9hPa SSW 5.0mph /  8km/h 9.0mph /  14.5km/h 67% 0.00in /  0mm
01:40 60.4 °F /  15.8 °C 49.4 °F /  9.7 °C 30.12in /  1019.9hPa SSW 5.0mph /  8km/h 9.0mph /  14.5km/h 67% 0.00in /  0mm
01:44 60.4 °F /  15.8 °C 50.2 °F /  10.1 °C 30.12in /  1019.9hPa SSW 5.0mph /  8km/h 9.0mph /  14.5km/h 69% 0.00in /  0mm
01:50 60.4 °F /  15.8 °C 50.2 °F /  10.1 °C 30.13in /  1020.2hPa SSW 6.0mph /  9.7km/h 11.0mph /  17.7km/h 69% 0.00in /  0mm
01:54 60.4 °F /  15.8 °C 50.6 °F /  10.3 °C 30.13in /  1020.2hPa SSW 4.0mph /  6.4km/h 11.0mph /  17.7km/h 70% 0.00in /  0mm
01:59 60.2 °F /  15.7 °C 50.4 °F /  10.2 °C 30.13in /  1020.2hPa SSW 5.0mph /  8km/h 9.0mph /  14.5km/h 70% 0.00in /  0mm
02:04 59.9 °F /  15.5 °C 50.5 °F /  10.3 °C 30.13in /  1020.2hPa SSW 5.0mph /  8km/h 8.0mph /  12.9km/h 71% 0.00in /  0mm
02:09 59.6 °F /  15.3 °C 50.2 °F /  10.1 °C 30.13in /  1020.2hPa SSW 5.0mph /  8km/h 9.0mph /  14.5km/h 71% 0.00in /  0mm
02:14 59.6 °F /  15.3 °C 50.6 °F /  10.3 °C 30.13in /  1020.2hPa SSW 5.0mph /  8km/h 9.0mph /  14.5km/h 72% 0.00in /  0mm
02:19 59.5 °F /  15.3 °C 50.8 °F /  10.4 °C 30.13in /  1020.2hPa SSW 4.0mph /  6.4km/h 9.0mph /  14.5km/h 73% 0.00in /  0mm
02:24 59.4 °F /  15.2 °C 50.8 °F /  10.4 °C 30.13in /  1020.2hPa SSW 5.0mph /  8km/h 9.0mph /  14.5km/h 73% 0.00in /  0mm
02:29 59.3 °F /  15.2 °C 50.7 °F /  10.4 °C 30.13in /  1020.2hPa SSW 5.0mph /  8km/h 8.0mph /  12.9km/h 73% 0.00in /  0mm
02:34 59.5 °F /  15.3 °C 50.8 °F /  10.4 °C 30.13in /  1020.2hPa SSW 5.0mph /  8km/h 9.0mph /  14.5km/h 73% 0.00in /  0mm
02:39 59.5 °F /  15.3 °C 50.8 °F /  10.4 °C 30.13in /  1020.2hPa SSW 5.0mph /  8km/h 9.0mph /  14.5km/h 73% 0.00in /  0mm
02:44 59.3 °F /  15.2 °C 50.7 °F /  10.4 °C 30.13in /  1020.2hPa SSW 5.0mph /  8km/h 8.0mph /  12.9km/h 73% 0.00in /  0mm
02:49 59.2 °F /  15.1 °C 50.9 °F /  10.5 °C 30.13in /  1020.2hPa SSW 5.0mph /  8km/h 8.0mph /  12.9km/h 74% 0.00in /  0mm
02:54 59.0 °F /  15 °C 50.7 °F /  10.4 °C 30.12in /  1019.9hPa SSW 5.0mph /  8km/h 9.0mph /  14.5km/h 74% 0.00in /  0mm
02:59 59.0 °F /  15 °C 51.1 °F /  10.6 °C 30.12in /  1019.9hPa SSW 6.0mph /  9.7km/h 9.0mph /  14.5km/h 75% 0.00in /  0mm
03:05 59.0 °F /  15 °C 50.7 °F /  10.4 °C 30.12in /  1019.9hPa SSW 6.0mph /  9.7km/h 10.0mph /  16.1km/h 74% 0.00in /  0mm
03:09 59.0 °F /  15 °C 51.1 °F /  10.6 °C 30.11in /  1019.5hPa SSW 6.0mph /  9.7km/h 10.0mph /  16.1km/h 75% 0.00in /  0mm
03:14 59.2 °F /  15.1 °C 50.9 °F /  10.5 °C 30.11in /  1019.5hPa SSW 6.0mph /  9.7km/h 10.0mph /  16.1km/h 74% 0.00in /  0mm
03:19 59.5 °F /  15.3 °C 51.2 °F /  10.7 °C 30.11in /  1019.5hPa SSW 6.0mph /  9.7km/h 11.0mph /  17.7km/h 74% 0.00in /  0mm
03:24 59.3 °F /  15.2 °C 51.0 °F /  10.6 °C 30.11in /  1019.5hPa SSW 5.0mph /  8km/h 11.0mph /  17.7km/h 74% 0.00in /  0mm
03:30 59.0 °F /  15 °C 50.7 °F /  10.4 °C 30.11in /  1019.5hPa SSW 6.0mph /  9.7km/h 10.0mph /  16.1km/h 74% 0.00in /  0mm
03:39 59.0 °F /  15 °C 51.1 °F /  10.6 °C 30.11in /  1019.5hPa SSW 6.0mph /  9.7km/h 11.0mph /  17.7km/h 75% 0.00in /  0mm
03:44 59.0 °F /  15 °C 51.1 °F /  10.6 °C 30.10in /  1019.2hPa SSW 6.0mph /  9.7km/h 11.0mph /  17.7km/h 75% 0.00in /  0mm
03:50 58.8 °F /  14.9 °C 50.9 °F /  10.5 °C 30.10in /  1019.2hPa SSW 5.0mph /  8km/h 8.0mph /  12.9km/h 75% 0.00in /  0mm
03:54 58.5 °F /  14.7 °C 51.0 °F /  10.6 °C 30.10in /  1019.2hPa SSW 5.0mph /  8km/h 10.0mph /  16.1km/h 76% 0.00in /  0mm
03:59 58.3 °F /  14.6 °C 50.8 °F /  10.4 °C 30.10in /  1019.2hPa SSW 5.0mph /  8km/h 10.0mph /  16.1km/h 76% 0.00in /  0mm
04:04 58.1 °F /  14.5 °C 50.6 °F /  10.3 °C 30.10in /  1019.2hPa SSW 6.0mph /  9.7km/h 10.0mph /  16.1km/h 76% 0.00in /  0mm
04:09 58.1 °F /  14.5 °C 50.9 °F /  10.5 °C 30.10in /  1019.2hPa SSW 5.0mph /  8km/h 9.0mph /  14.5km/h 77% 0.00in /  0mm
04:14 58.0 °F /  14.4 °C 50.8 °F /  10.4 °C 30.10in /  1019.2hPa SSW 6.0mph /  9.7km/h 12.0mph /  19.3km/h 77% 0.00in /  0mm
04:19 58.1 °F /  14.5 °C 50.9 °F /  10.5 °C 30.10in /  1019.2hPa SSW 6.0mph /  9.7km/h 12.0mph /  19.3km/h 77% 0.00in /  0mm
04:24 58.1 °F /  14.5 °C 50.9 °F /  10.5 °C 30.10in /  1019.2hPa SSW 6.0mph /  9.7km/h 9.0mph /  14.5km/h 77% 0.00in /  0mm
04:29 58.0 °F /  14.4 °C 50.8 °F /  10.4 °C 30.10in /  1019.2hPa SSW 6.0mph /  9.7km/h 9.0mph /  14.5km/h 77% 0.00in /  0mm
04:34 57.7 °F /  14.3 °C 50.5 °F /  10.3 °C 30.10in /  1019.2hPa SSW 6.0mph /  9.7km/h 11.0mph /  17.7km/h 77% 0.00in /  0mm
04:40 57.6 °F /  14.2 °C 50.8 °F /  10.4 °C 30.10in /  1019.2hPa SSW 5.0mph /  8km/h 11.0mph /  17.7km/h 78% 0.00in /  0mm
04:49 57.4 °F /  14.1 °C 50.6 °F /  10.3 °C 30.10in /  1019.2hPa SSW 5.0mph /  8km/h 10.0mph /  16.1km/h 78% 0.00in /  0mm
04:54 57.3 °F /  14.1 °C 50.5 °F /  10.3 °C 30.10in /  1019.2hPa SSW 4.0mph /  6.4km/h 9.0mph /  14.5km/h 78% 0.00in /  0mm
04:59 57.1 °F /  13.9 °C 50.7 °F /  10.4 °C 30.10in /  1019.2hPa SSW 5.0mph /  8km/h 9.0mph /  14.5km/h 79% 0.00in /  0mm
05:04 56.9 °F /  13.8 °C 50.5 °F /  10.3 °C 30.10in /  1019.2hPa SSW 4.0mph /  6.4km/h 8.0mph /  12.9km/h 79% 0.00in /  0mm
05:09 56.9 °F /  13.8 °C 50.5 °F /  10.3 °C 30.10in /  1019.2hPa SSW 5.0mph /  8km/h 8.0mph /  12.9km/h 79% 0.00in /  0mm
05:14 56.9 °F /  13.8 °C 50.8 °F /  10.4 °C 30.10in /  1019.2hPa SSW 5.0mph /  8km/h 8.0mph /  12.9km/h 80% 0.00in /  0mm
05:19 56.9 °F /  13.8 °C 50.5 °F /  10.3 °C 30.10in /  1019.2hPa SW 4.0mph /  6.4km/h 8.0mph /  12.9km/h 79% 0.00in /  0mm
05:24 56.9 °F /  13.8 °C 50.8 °F /  10.4 °C 30.10in /  1019.2hPa SSW 6.0mph /  9.7km/h 9.0mph /  14.5km/h 80% 0.00in /  0mm
05:29 57.2 °F /  14 °C 51.4 °F /  10.8 °C 30.10in /  1019.2hPa SSW 6.0mph /  9.7km/h 10.0mph /  16.1km/h 81% 0.00in /  0mm
05:34 57.3 °F /  14.1 °C 51.2 °F /  10.7 °C 30.10in /  1019.2hPa SSW 5.0mph /  8km/h 10.0mph /  16.1km/h 80% 0.00in /  0mm
05:39 57.3 °F /  14.1 °C 51.2 °F /  10.7 °C 30.10in /  1019.2hPa SSW 6.0mph /  9.7km/h 8.0mph /  12.9km/h 80% 0.00in /  0mm
05:44 57.2 °F /  14 °C 51.1 °F /  10.6 °C 30.10in /  1019.2hPa SSW 6.0mph /  9.7km/h 9.0mph /  14.5km/h 80% 0.00in /  0mm
05:49 57.3 °F /  14.1 °C 51.5 °F /  10.8 °C 30.10in /  1019.2hPa SSW 6.0mph /  9.7km/h 10.0mph /  16.1km/h 81% 0.00in /  0mm
05:54 57.5 °F /  14.2 °C 51.7 °F /  10.9 °C 30.10in /  1019.2hPa SSW 7.0mph /  11.3km/h 11.0mph /  17.7km/h 81% 0.00in /  0mm
05:59 57.6 °F /  14.2 °C 51.8 °F /  11 °C 30.10in /  1019.2hPa SSW 6.0mph /  9.7km/h 11.0mph /  17.7km/h 81% 0.00in /  0mm
06:04 57.5 °F /  14.2 °C 51.4 °F /  10.8 °C 30.10in /  1019.2hPa SSW 6.0mph /  9.7km/h 11.0mph /  17.7km/h 80% 0.00in /  0mm
06:09 57.6 °F /  14.2 °C 51.8 °F /  11 °C 30.10in /  1019.2hPa SSW 6.0mph /  9.7km/h 12.0mph /  19.3km/h 81% 0.00in /  0mm
06:14 57.7 °F /  14.3 °C 51.9 °F /  11.1 °C 30.09in /  1018.8hPa SSW 7.0mph /  11.3km/h 13.0mph /  20.9km/h 81% 0.00in /  0mm
06:19 57.6 °F /  14.2 °C 51.8 °F /  11 °C 30.09in /  1018.8hPa SSW 6.0mph /  9.7km/h 13.0mph /  20.9km/h 81% 0.00in /  0mm
06:24 57.3 °F /  14.1 °C 51.5 °F /  10.8 °C 30.09in /  1018.8hPa SSW 5.0mph /  8km/h 11.0mph /  17.7km/h 81% 0.00in /  0mm
06:29 57.1 °F /  13.9 °C 51.3 °F /  10.7 °C 30.09in /  1018.8hPa SW 5.0mph /  8km/h 10.0mph /  16.1km/h 81% 0.00in /  0mm
06:34 56.9 °F /  13.8 °C 51.5 °F /  10.8 °C 30.09in /  1018.8hPa SSW 4.0mph /  6.4km/h 9.0mph /  14.5km/h 82% 0.00in /  0mm
06:39 56.6 °F /  13.7 °C 51.2 °F /  10.7 °C 30.10in /  1019.2hPa SW 5.0mph /  8km/h 9.0mph /  14.5km/h 82% 0.00in /  0mm
06:44 56.5 °F /  13.6 °C 51.1 °F /  10.6 °C 30.10in /  1019.2hPa SW 4.0mph /  6.4km/h 9.0mph /  14.5km/h 82% 0.00in /  0mm
06:49 56.2 °F /  13.4 °C 50.8 °F /  10.4 °C 30.10in /  1019.2hPa SSW 4.0mph /  6.4km/h 9.0mph /  14.5km/h 82% 0.00in /  0mm
06:54 55.8 °F /  13.2 °C 50.7 °F /  10.4 °C 30.10in /  1019.2hPa SSW 3.0mph /  4.8km/h 9.0mph /  14.5km/h 83% 0.00in /  0mm
06:59 55.5 °F /  13.1 °C 50.4 °F /  10.2 °C 30.11in /  1019.5hPa Calm   6.0mph /  9.7km/h 83% 0.00in /  0mm
07:04 55.1 °F /  12.8 °C 50.4 °F /  10.2 °C 30.11in /  1019.5hPa SW 2.0mph /  3.2km/h 6.0mph /  9.7km/h 84% 0.00in /  0mm
07:09 55.0 °F /  12.8 °C 50.3 °F /  10.2 °C 30.11in /  1019.5hPa SSW 2.0mph /  3.2km/h 6.0mph /  9.7km/h 84% 0.00in /  0mm
07:14 55.1 °F /  12.8 °C 50.7 °F /  10.4 °C 30.11in /  1019.5hPa SSW 3.0mph /  4.8km/h 6.0mph /  9.7km/h 85% 0.00in /  0mm
07:19 55.5 °F /  13.1 °C 51.1 °F /  10.6 °C 30.11in /  1019.5hPa SSW 5.0mph /  8km/h 8.0mph /  12.9km/h 85% 0.00in /  0mm
07:24 56.5 °F /  13.6 °C 52.0 °F /  11.1 °C 30.11in /  1019.5hPa SSW 7.0mph /  11.3km/h 13.0mph /  20.9km/h 85% 0.00in /  0mm
07:29 56.8 °F /  13.8 °C 51.7 °F /  10.9 °C 30.11in /  1019.5hPa SSW 6.0mph /  9.7km/h 13.0mph /  20.9km/h 83% 0.00in /  0mm
07:34 57.1 °F /  13.9 °C 52.0 °F /  11.1 °C 30.11in /  1019.5hPa SW 7.0mph /  11.3km/h 15.0mph /  24.1km/h 83% 0.00in /  0mm
07:39 57.3 °F /  14.1 °C 52.2 °F /  11.2 °C 30.11in /  1019.5hPa SSW 6.0mph /  9.7km/h 15.0mph /  24.1km/h 83% 0.00in /  0mm
07:44 57.5 °F /  14.2 °C 52.1 °F /  11.2 °C 30.11in /  1019.5hPa SSW 6.0mph /  9.7km/h 13.0mph /  20.9km/h 82% 0.00in /  0mm
07:49 57.7 °F /  14.3 °C 52.2 °F /  11.2 °C 30.11in /  1019.5hPa SSW 5.0mph /  8km/h 12.0mph /  19.3km/h 82% 0.00in /  0mm
07:54 57.9 °F /  14.4 °C 52.4 °F /  11.3 °C 30.11in /  1019.5hPa SSW 6.0mph /  9.7km/h 14.0mph /  22.5km/h 82% 0.00in /  0mm
07:59 58.0 °F /  14.4 °C 52.5 °F /  11.4 °C 30.11in /  1019.5hPa SSW 6.0mph /  9.7km/h 14.0mph /  22.5km/h 82% 0.00in /  0mm
08:04 58.3 °F /  14.6 °C 52.5 °F /  11.4 °C 30.11in /  1019.5hPa SW 7.0mph /  11.3km/h 16.0mph /  25.7km/h 81% 0.00in /  0mm
08:09 58.6 °F /  14.8 °C 52.8 °F /  11.6 °C 30.12in /  1019.9hPa SSW 8.0mph /  12.9km/h 16.0mph /  25.7km/h 81% 0.00in /  0mm
08:14 59.0 °F /  15 °C 52.8 °F /  11.6 °C 30.11in /  1019.5hPa SW 7.0mph /  11.3km/h 14.0mph /  22.5km/h 80% 0.00in /  0mm
08:19 59.0 °F /  15 °C 52.8 °F /  11.6 °C 30.12in /  1019.9hPa SW 7.0mph /  11.3km/h 15.0mph /  24.1km/h 80% 0.00in /  0mm
08:25 59.2 °F /  15.1 °C 53.0 °F /  11.7 °C 30.12in /  1019.9hPa SSW 7.0mph /  11.3km/h 15.0mph /  24.1km/h 80% 0.00in /  0mm
08:34 59.9 °F /  15.5 °C 53.0 °F /  11.7 °C 30.12in /  1019.9hPa SSW 7.0mph /  11.3km/h 13.0mph /  20.9km/h 78% 0.00in /  0mm
08:39 60.3 °F /  15.7 °C 53.4 °F /  11.9 °C 30.11in /  1019.5hPa SSW 3.0mph /  4.8km/h 13.0mph /  20.9km/h 78% 0.00in /  0mm
08:44 60.7 °F /  15.9 °C 53.5 °F /  11.9 °C 30.11in /  1019.5hPa SSW 5.0mph /  8km/h 12.0mph /  19.3km/h 77% 0.00in /  0mm
08:49 60.8 °F /  16 °C 53.6 °F /  12 °C 30.11in /  1019.5hPa SSW 6.0mph /  9.7km/h 12.0mph /  19.3km/h 77% 0.00in /  0mm
08:54 60.9 °F /  16.1 °C 53.3 °F /  11.8 °C 30.11in /  1019.5hPa SSW 5.0mph /  8km/h 12.0mph /  19.3km/h 76% 0.00in /  0mm
08:59 60.9 °F /  16.1 °C 53.3 °F /  11.8 °C 30.11in /  1019.5hPa SSW 7.0mph /  11.3km/h 12.0mph /  19.3km/h 76% 0.00in /  0mm
09:04 60.8 °F /  16 °C 53.2 °F /  11.8 °C 30.11in /  1019.5hPa SSW 6.0mph /  9.7km/h 17.0mph /  27.4km/h 76% 0.00in /  0mm
09:09 60.8 °F /  16 °C 53.2 °F /  11.8 °C 30.11in /  1019.5hPa SSW 6.0mph /  9.7km/h 17.0mph /  27.4km/h 76% 0.00in /  0mm
09:14 60.9 °F /  16.1 °C 53.3 °F /  11.8 °C 30.11in /  1019.5hPa SSW 5.0mph /  8km/h 13.0mph /  20.9km/h 76% 0.00in /  0mm
09:19 61.2 °F /  16.2 °C 53.6 °F /  12 °C 30.10in /  1019.2hPa SSW 6.0mph /  9.7km/h 13.0mph /  20.9km/h 76% 0.00in /  0mm
09:24 61.7 °F /  16.5 °C 53.7 °F /  12.1 °C 30.10in /  1019.2hPa SSW 7.0mph /  11.3km/h 14.0mph /  22.5km/h 75% 0.00in /  0mm
09:29 62.0 °F /  16.7 °C 53.6 °F /  12 °C 30.10in /  1019.2hPa SSW 6.0mph /  9.7km/h 14.0mph /  22.5km/h 74% 0.00in /  0mm
09:34 62.3 °F /  16.8 °C 53.5 °F /  11.9 °C 30.09in /  1018.8hPa SSW 8.0mph /  12.9km/h 14.0mph /  22.5km/h 73% 0.00in /  0mm
09:39 62.7 °F /  17.1 °C 54.3 °F /  12.4 °C 30.09in /  1018.8hPa SSW 5.0mph /  8km/h 14.0mph /  22.5km/h 74% 0.00in /  0mm
09:44 63.3 °F /  17.4 °C 54.1 °F /  12.3 °C 30.09in /  1018.8hPa SSW 7.0mph /  11.3km/h 13.0mph /  20.9km/h 72% 0.00in /  0mm
09:49 63.6 °F /  17.6 °C 54.0 °F /  12.2 °C 30.09in /  1018.8hPa SW 8.0mph /  12.9km/h 13.0mph /  20.9km/h 71% 0.00in /  0mm
09:54 63.7 °F /  17.6 °C 53.7 °F /  12.1 °C 30.09in /  1018.8hPa SW 9.0mph /  14.5km/h 13.0mph /  20.9km/h 70% 0.00in /  0mm
09:59 63.8 °F /  17.7 °C 54.2 °F /  12.3 °C 30.09in /  1018.8hPa SW 6.0mph /  9.7km/h 15.0mph /  24.1km/h 71% 0.00in /  0mm
10:04 64.4 °F /  18 °C 54.0 °F /  12.2 °C 30.08in /  1018.5hPa SW 8.0mph /  12.9km/h 15.0mph /  24.1km/h 69% 0.00in /  0mm
10:09 64.9 °F /  18.3 °C 54.1 °F /  12.3 °C 30.08in /  1018.5hPa SW 5.0mph /  8km/h 13.0mph /  20.9km/h 68% 0.00in /  0mm
10:14 65.7 °F /  18.7 °C 54.0 °F /  12.2 °C 30.08in /  1018.5hPa SW 6.0mph /  9.7km/h 13.0mph /  20.9km/h 66% 0.00in /  0mm
10:19 66.3 °F /  19.1 °C 54.2 °F /  12.3 °C 30.08in /  1018.5hPa SW 7.0mph /  11.3km/h 13.0mph /  20.9km/h 65% 0.00in /  0mm
10:24 66.5 °F /  19.2 °C 54.4 °F /  12.4 °C 30.08in /  1018.5hPa SW 7.0mph /  11.3km/h 13.0mph /  20.9km/h 65% 0.00in /  0mm
10:30 67.0 °F /  19.4 °C 54.4 °F /  12.4 °C 30.08in /  1018.5hPa SW 7.0mph /  11.3km/h 13.0mph /  20.9km/h 64% 0.00in /  0mm
10:34 67.6 °F /  19.8 °C 54.6 °F /  12.6 °C 30.08in /  1018.5hPa SW 6.0mph /  9.7km/h 10.0mph /  16.1km/h 63% 0.00in /  0mm
10:40 68.4 °F /  20.2 °C 55.3 °F /  12.9 °C 30.08in /  1018.5hPa SW 2.0mph /  3.2km/h 9.0mph /  14.5km/h 63% 0.00in /  0mm
10:49 68.8 °F /  20.4 °C 54.8 °F /  12.7 °C 30.08in /  1018.5hPa SSW 5.0mph /  8km/h 11.0mph /  17.7km/h 61% 0.00in /  0mm
10:54 69.5 °F /  20.8 °C 55.0 °F /  12.8 °C 30.08in /  1018.5hPa SSW 4.0mph /  6.4km/h 10.0mph /  16.1km/h 60% 0.00in /  0mm
10:59 69.7 °F /  20.9 °C 54.7 °F /  12.6 °C 30.08in /  1018.5hPa SW 3.0mph /  4.8km/h 9.0mph /  14.5km/h 59% 0.00in /  0mm
11:04 70.4 °F /  21.3 °C 54.9 °F /  12.7 °C 30.08in /  1018.5hPa SSW 3.0mph /  4.8km/h 9.0mph /  14.5km/h 58% 0.00in /  0mm
11:09 71.2 °F /  21.8 °C 55.2 °F /  12.9 °C 30.08in /  1018.5hPa SW 3.0mph /  4.8km/h 8.0mph /  12.9km/h 57% 0.00in /  0mm
11:14 71.3 °F /  21.8 °C 54.8 °F /  12.7 °C 30.08in /  1018.5hPa SW 8.0mph /  12.9km/h 13.0mph /  20.9km/h 56% 0.00in /  0mm
11:19 71.4 °F /  21.9 °C 54.4 °F /  12.4 °C 30.07in /  1018.2hPa WSW 4.0mph /  6.4km/h 14.0mph /  22.5km/h 55% 0.00in /  0mm
11:24 72.4 °F /  22.4 °C 54.8 °F /  12.7 °C 30.07in /  1018.2hPa SW 4.0mph /  6.4km/h 14.0mph /  22.5km/h 54% 0.00in /  0mm
11:29 72.9 °F /  22.7 °C 55.3 °F /  12.9 °C 30.07in /  1018.2hPa WSW 5.0mph /  8km/h 11.0mph /  17.7km/h 54% 0.00in /  0mm
11:34 72.9 °F /  22.7 °C 54.3 °F /  12.4 °C 30.07in /  1018.2hPa SW 6.0mph /  9.7km/h 11.0mph /  17.7km/h 52% 0.00in /  0mm
11:39 72.9 °F /  22.7 °C 54.3 °F /  12.4 °C 30.07in /  1018.2hPa WSW 6.0mph /  9.7km/h 12.0mph /  19.3km/h 52% 0.00in /  0mm
11:44 73.0 °F /  22.8 °C 54.4 °F /  12.4 °C 30.07in /  1018.2hPa SW 5.0mph /  8km/h 12.0mph /  19.3km/h 52% 0.00in /  0mm
11:49 73.1 °F /  22.8 °C 54.4 °F /  12.4 °C 30.07in /  1018.2hPa WSW 6.0mph /  9.7km/h 12.0mph /  19.3km/h 52% 0.00in /  0mm
11:54 73.4 °F /  23 °C 54.2 °F /  12.3 °C 30.07in /  1018.2hPa WSW 6.0mph /  9.7km/h 11.0mph /  17.7km/h 51% 0.00in /  0mm
11:59 73.7 °F /  23.2 °C 53.9 °F /  12.2 °C 30.07in /  1018.2hPa West 8.0mph /  12.9km/h 13.0mph /  20.9km/h 50% 0.00in /  0mm
12:04 74.2 °F /  23.4 °C 54.4 °F /  12.4 °C 30.07in /  1018.2hPa West 5.0mph /  8km/h 13.0mph /  20.9km/h 50% 0.00in /  0mm
12:09 74.5 °F /  23.6 °C 54.7 °F /  12.6 °C 30.07in /  1018.2hPa WSW 6.0mph /  9.7km/h 11.0mph /  17.7km/h 50% 0.00in /  0mm
12:14 74.3 °F /  23.5 °C 54.5 °F /  12.5 °C 30.07in /  1018.2hPa SW 4.0mph /  6.4km/h 11.0mph /  17.7km/h 50% 0.00in /  0mm
12:20 74.6 °F /  23.7 °C 54.2 °F /  12.3 °C 30.07in /  1018.2hPa WSW 5.0mph /  8km/h 9.0mph /  14.5km/h 49% 0.00in /  0mm
12:24 74.8 °F /  23.8 °C 55.5 °F /  13.1 °C 30.06in /  1017.8hPa SW 4.0mph /  6.4km/h 10.0mph /  16.1km/h 51% 0.00in /  0mm
12:29 75.0 °F /  23.9 °C 54.6 °F /  12.6 °C 30.06in /  1017.8hPa WSW 5.0mph /  8km/h 10.0mph /  16.1km/h 49% 0.00in /  0mm
12:35 75.5 °F /  24.2 °C 54.5 °F /  12.5 °C 30.06in /  1017.8hPa West 4.0mph /  6.4km/h 10.0mph /  16.1km/h 48% 0.00in /  0mm
12:44 75.5 °F /  24.2 °C 54.5 °F /  12.5 °C 30.05in /  1017.5hPa WNW 5.0mph /  8km/h 10.0mph /  16.1km/h 48% 0.00in /  0mm
12:49 76.2 °F /  24.6 °C 53.9 °F /  12.2 °C 30.05in /  1017.5hPa WSW 4.0mph /  6.4km/h 10.0mph /  16.1km/h 46% 0.00in /  0mm
12:54 76.7 °F /  24.8 °C 54.4 °F /  12.4 °C 30.05in /  1017.5hPa WSW 4.0mph /  6.4km/h 10.0mph /  16.1km/h 46% 0.00in /  0mm
12:59 77.2 °F /  25.1 °C 54.8 °F /  12.7 °C 30.05in /  1017.5hPa WSW 6.0mph /  9.7km/h 10.0mph /  16.1km/h 46% 0.00in /  0mm
13:04 77.2 °F /  25.1 °C 53.6 °F /  12 °C 30.05in /  1017.5hPa WNW 4.0mph /  6.4km/h 10.0mph /  16.1km/h 44% 0.00in /  0mm
13:09 77.4 °F /  25.2 °C 53.8 °F /  12.1 °C 30.05in /  1017.5hPa West 2.0mph /  3.2km/h 10.0mph /  16.1km/h 44% 0.00in /  0mm
13:14 77.5 °F /  25.3 °C 53.3 °F /  11.8 °C 30.05in /  1017.5hPa WNW 3.0mph /  4.8km/h 10.0mph /  16.1km/h 43% 0.00in /  0mm
13:19 76.9 °F /  24.9 °C 54.0 °F /  12.2 °C 30.05in /  1017.5hPa West 5.0mph /  8km/h 12.0mph /  19.3km/h 45% 0.00in /  0mm
13:24 76.8 °F /  24.9 °C 54.5 °F /  12.5 °C 30.04in /  1017.2hPa NW 2.0mph /  3.2km/h 12.0mph /  19.3km/h 46% 0.00in /  0mm
13:29 77.2 °F /  25.1 °C 54.2 °F /  12.3 °C 30.04in /  1017.2hPa West 6.0mph /  9.7km/h 10.0mph /  16.1km/h 45% 0.00in /  0mm
13:34 77.1 °F /  25.1 °C 53.5 °F /  11.9 °C 30.04in /  1017.2hPa NNE 1.0mph /  1.6km/h 13.0mph /  20.9km/h 44% 0.00in /  0mm
13:39 77.7 °F /  25.4 °C 54.1 °F /  12.3 °C 30.04in /  1017.2hPa WNW 3.0mph /  4.8km/h 13.0mph /  20.9km/h 44% 0.00in /  0mm
13:44 78.0 °F /  25.6 °C 53.7 °F /  12.1 °C 30.03in /  1016.8hPa NW 3.0mph /  4.8km/h 11.0mph /  17.7km/h 43% 0.00in /  0mm
13:49 77.8 °F /  25.4 °C 54.2 °F /  12.3 °C 30.03in /  1016.8hPa North 3.0mph /  4.8km/h 11.0mph /  17.7km/h 44% 0.00in /  0mm
13:59 78.2 °F /  25.7 °C 53.9 °F /  12.2 °C 30.03in /  1016.8hPa WNW 5.0mph /  8km/h 10.0mph /  16.1km/h 43% 0.00in /  0mm
14:04 77.7 °F /  25.4 °C 54.7 °F /  12.6 °C 30.03in /  1016.8hPa WNW 3.0mph /  4.8km/h 11.0mph /  17.7km/h 45% 0.00in /  0mm
14:09 78.5 °F /  25.8 °C 55.4 °F /  13 °C 30.03in /  1016.8hPa North 4.0mph /  6.4km/h 11.0mph /  17.7km/h 45% 0.00in /  0mm
14:14 78.4 °F /  25.8 °C 54.1 °F /  12.3 °C 30.03in /  1016.8hPa NW 2.0mph /  3.2km/h 11.0mph /  17.7km/h 43% 0.00in /  0mm
14:19 77.2 °F /  25.1 °C 54.2 °F /  12.3 °C 30.02in /  1016.5hPa WNW 6.0mph /  9.7km/h 11.0mph /  17.7km/h 45% 0.00in /  0mm
14:24 76.6 °F /  24.8 °C 54.3 °F /  12.4 °C 30.02in /  1016.5hPa NNW 3.0mph /  4.8km/h 11.0mph /  17.7km/h 46% 0.00in /  0mm
14:30 76.4 °F /  24.7 °C 54.1 °F /  12.3 °C 30.02in /  1016.5hPa NNW 6.0mph /  9.7km/h 13.0mph /  20.9km/h 46% 0.00in /  0mm
14:34 77.1 °F /  25.1 °C 55.3 °F /  12.9 °C 30.02in /  1016.5hPa NNW 3.0mph /  4.8km/h 13.0mph /  20.9km/h 47% 0.00in /  0mm
14:39 77.6 °F /  25.3 °C 55.2 °F /  12.9 °C 30.02in /  1016.5hPa NNW 2.0mph /  3.2km/h 12.0mph /  19.3km/h 46% 0.00in /  0mm
14:44 78.1 °F /  25.6 °C 55.1 °F /  12.8 °C 30.02in /  1016.5hPa NNE 3.0mph /  4.8km/h 11.0mph /  17.7km/h 45% 0.00in /  0mm
14:49 78.4 °F /  25.8 °C 55.3 °F /  12.9 °C 30.01in /  1016.1hPa NNW 5.0mph /  8km/h 12.0mph /  19.3km/h 45% 0.00in /  0mm
14:54 78.3 °F /  25.7 °C 55.2 °F /  12.9 °C 30.02in /  1016.5hPa North 4.0mph /  6.4km/h 12.0mph /  19.3km/h 45% 0.00in /  0mm
14:59 78.4 °F /  25.8 °C 55.9 °F /  13.3 °C 30.02in /  1016.5hPa North 3.0mph /  4.8km/h 13.0mph /  20.9km/h 46% 0.00in /  0mm
15:04 78.7 °F /  25.9 °C 55.6 °F /  13.1 °C 30.01in /  1016.1hPa North 4.0mph /  6.4km/h 13.0mph /  20.9km/h 45% 0.00in /  0mm
15:09 78.1 °F /  25.6 °C 55.1 °F /  12.8 °C 30.01in /  1016.1hPa NNE 1.0mph /  1.6km/h 10.0mph /  16.1km/h 45% 0.00in /  0mm
15:14 77.0 °F /  25 °C 55.8 °F /  13.2 °C 30.01in /  1016.1hPa North 2.0mph /  3.2km/h 14.0mph /  22.5km/h 48% 0.00in /  0mm
15:19 76.4 °F /  24.7 °C 55.3 °F /  12.9 °C 30.01in /  1016.1hPa North 2.0mph /  3.2km/h 14.0mph /  22.5km/h 48% 0.00in /  0mm
15:24 76.2 °F /  24.6 °C 55.1 °F /  12.8 °C 30.01in /  1016.1hPa North 2.0mph /  3.2km/h 12.0mph /  19.3km/h 48% 0.00in /  0mm
15:30 75.9 °F /  24.4 °C 54.3 °F /  12.4 °C 30.01in /  1016.1hPa NNW 5.0mph /  8km/h 19.0mph /  30.6km/h 47% 0.00in /  0mm
15:34 76.2 °F /  24.6 °C 54.5 °F /  12.5 °C 30.01in /  1016.1hPa NNW 4.0mph /  6.4km/h 19.0mph /  30.6km/h 47% 0.00in /  0mm
15:39 76.3 °F /  24.6 °C 54.6 °F /  12.6 °C 30.01in /  1016.1hPa NNW 3.0mph /  4.8km/h 14.0mph /  22.5km/h 47% 0.00in /  0mm
15:44 76.3 °F /  24.6 °C 54.6 °F /  12.6 °C 30.01in /  1016.1hPa NNE 2.0mph /  3.2km/h 14.0mph /  22.5km/h 47% 0.00in /  0mm
15:49 76.7 °F /  24.8 °C 55.0 °F /  12.8 °C 30.01in /  1016.1hPa North 2.0mph /  3.2km/h 11.0mph /  17.7km/h 47% 0.00in /  0mm
15:54 77.1 °F /  25.1 °C 55.3 °F /  12.9 °C 30.01in /  1016.1hPa NNW 3.0mph /  4.8km/h 11.0mph /  17.7km/h 47% 0.00in /  0mm
15:59 77.5 °F /  25.3 °C 55.1 °F /  12.8 °C 30.01in /  1016.1hPa NNW 2.0mph /  3.2km/h 13.0mph /  20.9km/h 46% 0.00in /  0mm
16:04 77.0 °F /  25 °C 54.1 °F /  12.3 °C 30.01in /  1016.1hPa NW 9.0mph /  14.5km/h 18.0mph /  29km/h 45% 0.00in /  0mm
16:09 76.0 °F /  24.4 °C 54.3 °F /  12.4 °C 30.01in /  1016.1hPa NNW 6.0mph /  9.7km/h 18.0mph /  29km/h 47% 0.00in /  0mm
16:14 76.1 °F /  24.5 °C 55.0 °F /  12.8 °C 30.01in /  1016.1hPa NNW 5.0mph /  8km/h 14.0mph /  22.5km/h 48% 0.00in /  0mm
16:19 76.1 °F /  24.5 °C 54.4 °F /  12.4 °C 30.01in /  1016.1hPa NW 6.0mph /  9.7km/h 14.0mph /  22.5km/h 47% 0.00in /  0mm
16:24 75.8 °F /  24.3 °C 54.2 °F /  12.3 °C 30.01in /  1016.1hPa NNW 8.0mph /  12.9km/h 15.0mph /  24.1km/h 47% 0.00in /  0mm
16:29 75.2 °F /  24 °C 54.2 °F /  12.3 °C 30.01in /  1016.1hPa NW 8.0mph /  12.9km/h 16.0mph /  25.7km/h 48% 0.00in /  0mm
16:34 74.6 °F /  23.7 °C 54.8 °F /  12.7 °C 30.01in /  1016.1hPa NNW 7.0mph /  11.3km/h 19.0mph /  30.6km/h 50% 0.00in /  0mm
16:40 74.7 °F /  23.7 °C 54.8 °F /  12.7 °C 30.01in /  1016.1hPa NNW 4.0mph /  6.4km/h 19.0mph /  30.6km/h 50% 0.00in /  0mm
16:49 74.4 °F /  23.6 °C 55.1 °F /  12.8 °C 30.01in /  1016.1hPa Calm   12.0mph /  19.3km/h 51% 0.00in /  0mm
16:54 74.1 °F /  23.4 °C 54.3 °F /  12.4 °C 30.01in /  1016.1hPa NNW 7.0mph /  11.3km/h 14.0mph /  22.5km/h 50% 0.00in /  0mm
16:59 73.7 °F /  23.2 °C 55.0 °F /  12.8 °C 30.01in /  1016.1hPa North 3.0mph /  4.8km/h 14.0mph /  22.5km/h 52% 0.00in /  0mm
17:04 73.2 °F /  22.9 °C 54.5 °F /  12.5 °C 30.01in /  1016.1hPa NNW 3.0mph /  4.8km/h 9.0mph /  14.5km/h 52% 0.00in /  0mm
17:09 72.5 °F /  22.5 °C 54.4 °F /  12.4 °C 30.01in /  1016.1hPa NNW 3.0mph /  4.8km/h 12.0mph /  19.3km/h 53% 0.00in /  0mm
17:14 72.0 °F /  22.2 °C 54.5 °F /  12.5 °C 30.01in /  1016.1hPa North 2.0mph /  3.2km/h 12.0mph /  19.3km/h 54% 0.00in /  0mm
17:20 71.7 °F /  22.1 °C 54.7 °F /  12.6 °C 30.01in /  1016.1hPa North 3.0mph /  4.8km/h 11.0mph /  17.7km/h 55% 0.00in /  0mm
17:30 71.1 °F /  21.7 °C 55.1 °F /  12.8 °C 30.01in /  1016.1hPa Calm   8.0mph /  12.9km/h 57% 0.00in /  0mm
17:39 71.0 °F /  21.7 °C 54.5 °F /  12.5 °C 30.01in /  1016.1hPa North 1.0mph /  1.6km/h 11.0mph /  17.7km/h 56% 0.00in /  0mm
17:45 70.8 °F /  21.6 °C 54.8 °F /  12.7 °C 30.01in /  1016.1hPa NNW 1.0mph /  1.6km/h 11.0mph /  17.7km/h 57% 0.00in /  0mm
17:54 70.1 °F /  21.2 °C 54.7 °F /  12.6 °C 30.01in /  1016.1hPa Calm   8.0mph /  12.9km/h 58% 0.00in /  0mm
17:59 69.9 °F /  21.1 °C 54.5 °F /  12.5 °C 30.01in /  1016.1hPa NNW 1.0mph /  1.6km/h 5.0mph /  8km/h 58% 0.00in /  0mm
18:04 69.7 °F /  20.9 °C 54.3 °F /  12.4 °C 30.01in /  1016.1hPa NNW 3.0mph /  4.8km/h 8.0mph /  12.9km/h 58% 0.00in /  0mm
18:09 69.6 °F /  20.9 °C 54.7 °F /  12.6 °C 30.01in /  1016.1hPa Calm   9.0mph /  14.5km/h 59% 0.00in /  0mm
18:14 69.5 °F /  20.8 °C 54.6 °F /  12.6 °C 30.01in /  1016.1hPa NW 2.0mph /  3.2km/h 9.0mph /  14.5km/h 59% 0.00in /  0mm
18:19 69.3 °F /  20.7 °C 54.4 °F /  12.4 °C 30.01in /  1016.1hPa Calm   6.0mph /  9.7km/h 59% 0.00in /  0mm
18:24 69.1 °F /  20.6 °C 54.6 °F /  12.6 °C 30.01in /  1016.1hPa NW 1.0mph /  1.6km/h 7.0mph /  11.3km/h 60% 0.00in /  0mm
18:30 68.9 °F /  20.5 °C 54.5 °F /  12.5 °C 30.01in /  1016.1hPa Calm   7.0mph /  11.3km/h 60% 0.00in /  0mm
18:35 68.7 °F /  20.4 °C 54.3 °F /  12.4 °C 30.01in /  1016.1hPa Calm   4.0mph /  6.4km/h 60% 0.00in /  0mm
18:44 68.1 °F /  20.1 °C 54.2 °F /  12.3 °C 30.00in /  1015.8hPa Calm     61% 0.00in /  0mm
18:49 67.9 °F /  19.9 °C 54.4 °F /  12.4 °C 30.01in /  1016.1hPa Calm   1.0mph /  1.6km/h 62% 0.00in /  0mm
18:54 67.6 °F /  19.8 °C 54.1 °F /  12.3 °C 30.01in /  1016.1hPa Calm   1.0mph /  1.6km/h 62% 0.00in /  0mm
18:59 67.4 °F /  19.7 °C 54.4 °F /  12.4 °C 30.01in /  1016.1hPa Calm   1.0mph /  1.6km/h 63% 0.00in /  0mm
19:04 67.1 °F /  19.5 °C 54.1 °F /  12.3 °C 30.01in /  1016.1hPa Calm     63% 0.00in /  0mm
19:09 66.8 °F /  19.3 °C 54.2 °F /  12.3 °C 30.02in /  1016.5hPa Calm   1.0mph /  1.6km/h 64% 0.00in /  0mm
19:14 66.5 °F /  19.2 °C 54.0 °F /  12.2 °C 30.02in /  1016.5hPa Calm   4.0mph /  6.4km/h 64% 0.00in /  0mm
19:19 66.3 °F /  19.1 °C 53.8 °F /  12.1 °C 30.02in /  1016.5hPa NW 1.0mph /  1.6km/h 6.0mph /  9.7km/h 64% 0.00in /  0mm
19:24 66.3 °F /  19.1 °C 54.2 °F /  12.3 °C 30.03in /  1016.8hPa NW 1.0mph /  1.6km/h 6.0mph /  9.7km/h 65% 0.00in /  0mm
19:29 66.2 °F /  19 °C 54.1 °F /  12.3 °C 30.03in /  1016.8hPa NW 2.0mph /  3.2km/h 6.0mph /  9.7km/h 65% 0.00in /  0mm
19:34 66.1 °F /  18.9 °C 54.0 °F /  12.2 °C 30.03in /  1016.8hPa Calm   5.0mph /  8km/h 65% 0.00in /  0mm
19:39 66.1 °F /  18.9 °C 54.0 °F /  12.2 °C 30.03in /  1016.8hPa NW 3.0mph /  4.8km/h 6.0mph /  9.7km/h 65% 0.00in /  0mm
19:44 66.3 °F /  19.1 °C 54.2 °F /  12.3 °C 30.03in /  1016.8hPa NNW 2.0mph /  3.2km/h 6.0mph /  9.7km/h 65% 0.00in /  0mm
19:49 66.3 °F /  19.1 °C 54.6 °F /  12.6 °C 30.03in /  1016.8hPa Calm   5.0mph /  8km/h 66% 0.00in /  0mm
19:54 66.2 °F /  19 °C 54.9 °F /  12.7 °C 30.03in /  1016.8hPa NNW 1.0mph /  1.6km/h 9.0mph /  14.5km/h 67% 0.00in /  0mm
19:59 66.1 °F /  18.9 °C 54.8 °F /  12.7 °C 30.04in /  1017.2hPa North 2.0mph /  3.2km/h 10.0mph /  16.1km/h 67% 0.00in /  0mm
20:04 66.1 °F /  18.9 °C 54.4 °F /  12.4 °C 30.04in /  1017.2hPa North 2.0mph /  3.2km/h 10.0mph /  16.1km/h 66% 0.00in /  0mm
20:09 65.9 °F /  18.8 °C 54.2 °F /  12.3 °C 30.04in /  1017.2hPa Calm   8.0mph /  12.9km/h 66% 0.00in /  0mm
20:14 65.6 °F /  18.7 °C 53.9 °F /  12.2 °C 30.04in /  1017.2hPa NNW 1.0mph /  1.6km/h 8.0mph /  12.9km/h 66% 0.00in /  0mm
20:19 65.4 °F /  18.6 °C 53.8 °F /  12.1 °C 30.04in /  1017.2hPa North 1.0mph /  1.6km/h 10.0mph /  16.1km/h 66% 0.00in /  0mm
20:24 65.2 °F /  18.4 °C 53.6 °F /  12 °C 30.04in /  1017.2hPa Calm   10.0mph /  16.1km/h 66% 0.00in /  0mm
20:29 64.9 °F /  18.3 °C 53.7 °F /  12.1 °C 30.04in /  1017.2hPa North 3.0mph /  4.8km/h 9.0mph /  14.5km/h 67% 0.00in /  0mm
20:34 64.8 °F /  18.2 °C 53.6 °F /  12 °C 30.04in /  1017.2hPa NNE 1.0mph /  1.6km/h 9.0mph /  14.5km/h 67% 0.00in /  0mm
20:39 64.6 °F /  18.1 °C 53.8 °F /  12.1 °C 30.04in /  1017.2hPa NNE 1.0mph /  1.6km/h 9.0mph /  14.5km/h 68% 0.00in /  0mm
20:44 64.4 °F /  18 °C 53.6 °F /  12 °C 30.04in /  1017.2hPa North 1.0mph /  1.6km/h 9.0mph /  14.5km/h 68% 0.00in /  0mm
20:49 64.3 °F /  17.9 °C 53.5 °F /  11.9 °C 30.04in /  1017.2hPa Calm   8.0mph /  12.9km/h 68% 0.00in /  0mm
20:54 64.2 °F /  17.9 °C 53.8 °F /  12.1 °C 30.04in /  1017.2hPa NNW 2.0mph /  3.2km/h 8.0mph /  12.9km/h 69% 0.00in /  0mm
20:59 64.0 °F /  17.8 °C 53.6 °F /  12 °C 30.04in /  1017.2hPa Calm   8.0mph /  12.9km/h 69% 0.00in /  0mm
21:04 63.7 °F /  17.6 °C 53.7 °F /  12.1 °C 30.04in /  1017.2hPa Calm   2.0mph /  3.2km/h 70% 0.00in /  0mm
21:09 63.4 °F /  17.4 °C 53.5 °F /  11.9 °C 30.04in /  1017.2hPa Calm   4.0mph /  6.4km/h 70% 0.00in /  0mm
21:14 63.1 °F /  17.3 °C 53.6 °F /  12 °C 30.03in /  1016.8hPa Calm   4.0mph /  6.4km/h 71% 0.00in /  0mm
21:19 62.9 °F /  17.2 °C 53.4 °F /  11.9 °C 30.04in /  1017.2hPa Calm     71% 0.00in /  0mm
21:24 62.5 °F /  16.9 °C 53.0 °F /  11.7 °C 30.04in /  1017.2hPa Calm   1.0mph /  1.6km/h 71% 0.00in /  0mm
21:29 62.2 °F /  16.8 °C 53.1 °F /  11.7 °C 30.05in /  1017.5hPa Calm   4.0mph /  6.4km/h 72% 0.00in /  0mm
21:35 61.9 °F /  16.6 °C 53.2 °F /  11.8 °C 30.05in /  1017.5hPa Calm   7.0mph /  11.3km/h 73% 0.00in /  0mm
21:44 62.0 °F /  16.7 °C 53.6 °F /  12 °C 30.05in /  1017.5hPa NNE 4.0mph /  6.4km/h 13.0mph /  20.9km/h 74% 0.00in /  0mm
21:49 62.0 °F /  16.7 °C 53.3 °F /  11.8 °C 30.05in /  1017.5hPa NE 4.0mph /  6.4km/h 13.0mph /  20.9km/h 73% 0.00in /  0mm
21:54 61.9 °F /  16.6 °C 53.2 °F /  11.8 °C 30.05in /  1017.5hPa North 2.0mph /  3.2km/h 11.0mph /  17.7km/h 73% 0.00in /  0mm
21:59 61.7 °F /  16.5 °C 53.3 °F /  11.8 °C 30.06in /  1017.8hPa Calm   10.0mph /  16.1km/h 74% 0.00in /  0mm
22:04 61.4 °F /  16.3 °C 53.0 °F /  11.7 °C 30.06in /  1017.8hPa Calm   10.0mph /  16.1km/h 74% 0.00in /  0mm
22:09 61.1 °F /  16.2 °C 52.4 °F /  11.3 °C 30.06in /  1017.8hPa Calm   9.0mph /  14.5km/h 73% 0.00in /  0mm
22:14 60.8 °F /  16 °C 52.1 °F /  11.2 °C 30.06in /  1017.8hPa North 1.0mph /  1.6km/h 8.0mph /  12.9km/h 73% 0.00in /  0mm
22:19 60.4 °F /  15.8 °C 51.7 °F /  10.9 °C 30.06in /  1017.8hPa Calm   8.0mph /  12.9km/h 73% 0.00in /  0mm
22:24 59.9 °F /  15.5 °C 50.9 °F /  10.5 °C 30.06in /  1017.8hPa Calm   8.0mph /  12.9km/h 72% 0.00in /  0mm
22:29 59.7 °F /  15.4 °C 50.7 °F /  10.4 °C 30.06in /  1017.8hPa NNE 3.0mph /  4.8km/h 10.0mph /  16.1km/h 72% 0.00in /  0mm
22:34 59.6 °F /  15.3 °C 49.8 °F /  9.9 °C 30.06in /  1017.8hPa NNE 1.0mph /  1.6km/h 10.0mph /  16.1km/h 70% 0.00in /  0mm
22:39 59.3 °F /  15.2 °C 49.5 °F /  9.7 °C 30.06in /  1017.8hPa Calm   7.0mph /  11.3km/h 70% 0.00in /  0mm
22:45 59.0 °F /  15 °C 49.2 °F /  9.6 °C 30.06in /  1017.8hPa Calm   6.0mph /  9.7km/h 70% 0.00in /  0mm
22:54 58.4 °F /  14.7 °C 49.0 °F /  9.4 °C 30.06in /  1017.8hPa NE 1.0mph /  1.6km/h 9.0mph /  14.5km/h 71% 0.00in /  0mm
22:59 58.4 °F /  14.7 °C 49.0 °F /  9.4 °C 30.06in /  1017.8hPa Calm   9.0mph /  14.5km/h 71% 0.00in /  0mm
23:04 58.4 °F /  14.7 °C 49.0 °F /  9.4 °C 30.06in /  1017.8hPa Calm   8.0mph /  12.9km/h 71% 0.00in /  0mm
23:09 58.3 °F /  14.6 °C 48.9 °F /  9.4 °C 30.06in /  1017.8hPa Calm   5.0mph /  8km/h 71% 0.00in /  0mm
23:14 58.1 °F /  14.5 °C 48.8 °F /  9.3 °C 30.06in /  1017.8hPa Calm   6.0mph /  9.7km/h 71% 0.00in /  0mm
23:19 58.1 °F /  14.5 °C 48.8 °F /  9.3 °C 30.07in /  1018.2hPa Calm   6.0mph /  9.7km/h 71% 0.00in /  0mm
23:24 57.8 °F /  14.3 °C 48.5 °F /  9.2 °C 30.07in /  1018.2hPa Calm   5.0mph /  8km/h 71% 0.00in /  0mm
23:29 57.7 °F /  14.3 °C 48.7 °F /  9.3 °C 30.07in /  1018.2hPa Calm     72% 0.00in /  0mm
23:34 57.5 °F /  14.2 °C 48.6 °F /  9.2 °C 30.07in /  1018.2hPa Calm     72% 0.00in /  0mm
23:40 57.4 °F /  14.1 °C 48.8 °F /  9.3 °C 30.06in /  1017.8hPa Calm     73% 0.00in /  0mm
23:49 57.2 °F /  14 °C 48.6 °F /  9.2 °C 30.06in /  1017.8hPa Calm   1.0mph /  1.6km/h 73% 0.00in /  0mm
23:54 57.0 °F /  13.9 °C 48.4 °F /  9.1 °C 30.06in /  1017.8hPa NNE 1.0mph /  1.6km/h 4.0mph /  6.4km/h 73% 0.00in /  0mm
23:59 56.7 °F /  13.7 °C 48.5 °F /  9.2 °C 30.06in /  1017.8hPa Calm   4.0mph /  6.4km/h 74% 0.00in /  0mm
Westford Weather
Compliments of Weather Underground

 
 
Current Radar Loop:

Copyright © WestfordWeather.net 2007-2014. All rights reserved.